Rocky Ford, Georgia
Current Conditions -  °F | °C
As of 1:35 AM on Saturday 29 Nov 2014 (Local Time) from KJYL Reporting Station
Clear Clear  
Wind Chill: 34°   Ceiling: Unl
Heat Index: 34°   Visibility: 7mi
Dew Point: 34°   Wind: 0mph
Humidity: 99%   Direction: NA
Pressure: 30.32"   Gusts: NA
Location:  32.66°N, 81.83°W
Report Text: KJYL 290635Z AUTO 00000KT 7SM CLR 01/01 A3032 RMK AO2 T00110009
Loading
Personal Weather Stations






























Interactive Weather Map New forecast layout! Learn more

10-Day Weather Forecast

Advertisements
Track Severe Weather on mobile